createdAt,value
2022-10-07T00:02:15.171Z,13.68
2022-10-07T00:06:13.323Z,7.80
2022-10-07T00:09:55.151Z,9.02
2022-10-07T00:13:41.272Z,10.70
2022-10-07T00:17:23.089Z,14.10
2022-10-07T00:21:06.890Z,10.90
2022-10-07T00:24:48.737Z,7.53
2022-10-07T00:28:31.108Z,10.65
2022-10-07T00:32:12.989Z,8.93
2022-10-07T00:35:54.843Z,7.07
2022-10-07T00:39:36.640Z,4.65
2022-10-07T00:43:20.206Z,12.35
2022-10-07T00:47:13.516Z,9.05
2022-10-07T00:50:57.721Z,6.57
2022-10-07T00:54:40.115Z,10.98
2022-10-07T00:58:21.987Z,14.13
2022-10-07T01:02:04.692Z,10.02
2022-10-07T01:05:46.640Z,11.95
2022-10-07T01:09:28.719Z,9.55
2022-10-07T01:13:19.555Z,8.55
2022-10-07T01:17:15.059Z,10.27
2022-10-07T01:21:20.327Z,7.90
2022-10-07T01:25:23.859Z,10.68
2022-10-07T01:29:28.890Z,13.27
2022-10-07T01:33:16.459Z,14.10
2022-10-07T01:37:00.559Z,11.50
2022-10-07T01:40:51.570Z,14.60
2022-10-07T01:44:33.714Z,12.20
2022-10-07T01:48:15.916Z,8.20
2022-10-07T01:52:29.629Z,7.93
2022-10-07T01:56:30.088Z,13.25
2022-10-07T02:00:13.236Z,10.23
2022-10-07T02:03:55.077Z,10.65
2022-10-07T02:07:43.130Z,8.77
2022-10-07T02:11:33.334Z,8.63
2022-10-07T02:15:20.967Z,10.75
2022-10-07T02:19:07.816Z,6.43
2022-10-07T02:22:51.995Z,7.10
2022-10-07T02:26:35.691Z,8.52
2022-10-07T02:30:20.262Z,9.45
2022-10-07T02:34:04.529Z,10.77
2022-10-07T02:37:49.578Z,8.77
2022-10-07T02:41:35.502Z,12.90
2022-10-07T02:45:29.394Z,7.25
2022-10-07T02:49:17.162Z,10.82
2022-10-07T02:53:01.846Z,10.70
2022-10-07T02:56:45.845Z,12.30
2022-10-07T03:00:31.176Z,6.35
2022-10-07T03:04:13.735Z,5.47
2022-10-07T03:07:59.349Z,7.78
2022-10-07T03:11:41.204Z,6.32
2022-10-07T03:15:23.887Z,8.38
2022-10-07T03:19:05.738Z,4.15
2022-10-07T03:22:47.583Z,10.35
2022-10-07T03:26:29.953Z,4.97
2022-10-07T03:30:12.199Z,9.05
2022-10-07T03:33:55.629Z,8.45
2022-10-07T03:37:37.427Z,4.22
2022-10-07T03:41:19.564Z,12.43
2022-10-07T03:45:01.467Z,4.28
2022-10-07T03:48:43.288Z,7.50
2022-10-07T03:52:25.149Z,9.38
2022-10-07T03:56:08.189Z,8.20
2022-10-07T03:59:50.239Z,7.78
2022-10-07T04:03:32.146Z,9.05
2022-10-07T04:07:14.024Z,6.63
2022-10-07T04:10:57.263Z,9.15
2022-10-07T04:14:39.226Z,8.02
2022-10-07T04:18:22.038Z,4.20
2022-10-07T04:22:08.464Z,7.30
2022-10-07T04:25:50.826Z,10.63
2022-10-07T04:29:36.749Z,10.75
2022-10-07T04:33:22.562Z,11.02
2022-10-07T04:37:05.567Z,9.38
2022-10-07T04:40:50.121Z,11.75
2022-10-07T04:44:31.948Z,8.23
2022-10-07T04:48:13.923Z,16.90
2022-10-07T04:51:56.807Z,7.38
2022-10-07T04:55:43.678Z,4.50
2022-10-07T04:59:29.183Z,5.75
2022-10-07T05:03:13.861Z,6.17
2022-10-07T05:06:55.653Z,9.57
2022-10-07T05:10:42.231Z,9.23
2022-10-07T05:14:24.096Z,6.25
2022-10-07T05:18:07.183Z,8.10
2022-10-07T05:21:49.055Z,10.02
2022-10-07T05:25:30.899Z,12.05
2022-10-07T05:29:13.112Z,9.05
2022-10-07T05:32:55.814Z,8.35
2022-10-07T05:36:38.853Z,7.82
2022-10-07T05:40:21.617Z,8.93
2022-10-07T05:44:03.484Z,5.38
2022-10-07T05:47:47.674Z,8.32
2022-10-07T05:51:29.627Z,10.43
2022-10-07T05:55:12.128Z,7.97
2022-10-07T05:58:54.287Z,5.85
2022-10-07T06:02:37.485Z,7.60
2022-10-07T06:06:20.001Z,6.03
2022-10-07T06:10:20.295Z,9.15
2022-10-07T06:14:02.375Z,12.52
2022-10-07T06:17:45.724Z,6.13
2022-10-07T06:21:28.445Z,8.90
2022-10-07T06:25:10.628Z,9.95
2022-10-07T06:28:52.519Z,9.63
2022-10-07T06:32:34.408Z,8.15
2022-10-07T06:36:16.657Z,5.55
2022-10-07T06:39:59.821Z,11.77
2022-10-07T06:43:42.166Z,8.50
2022-10-07T06:47:24.134Z,6.05
2022-10-07T06:51:06.238Z,8.73
2022-10-07T06:54:48.064Z,8.20
2022-10-07T06:58:30.327Z,10.18
2022-10-07T07:02:12.216Z,8.15
2022-10-07T07:05:55.150Z,19.10
2022-10-07T07:09:37.297Z,17.40
2022-10-07T07:13:19.271Z,16.17
2022-10-07T07:17:01.196Z,8.75
2022-10-07T07:20:43.074Z,11.73
2022-10-07T07:24:24.927Z,15.13
2022-10-07T07:28:08.124Z,14.90
2022-10-07T07:31:51.037Z,9.27
2022-10-07T07:35:38.517Z,10.43
2022-10-07T07:39:21.009Z,8.75
2022-10-07T07:43:03.131Z,10.65
2022-10-07T07:46:48.607Z,11.15
2022-10-07T07:50:30.631Z,12.25
2022-10-07T07:54:13.261Z,5.55
2022-10-07T07:57:55.332Z,10.43
2022-10-07T08:01:37.407Z,8.27
2022-10-07T08:05:23.726Z,9.85
2022-10-07T08:09:06.477Z,11.38
2022-10-07T08:12:48.247Z,8.18
2022-10-07T08:16:30.301Z,8.65
2022-10-07T08:20:12.098Z,6.25
2022-10-07T08:23:58.574Z,8.68
2022-10-07T08:27:40.380Z,14.88
2022-10-07T08:31:22.938Z,11.35
2022-10-07T08:35:05.270Z,8.07
2022-10-07T08:38:50.533Z,10.82
2022-10-07T08:42:39.115Z,5.25
2022-10-07T08:46:29.234Z,8.32
2022-10-07T08:50:22.392Z,4.55
2022-10-07T08:54:04.405Z,3.58
2022-10-07T08:58:31.027Z,6.10
2022-10-07T09:02:46.482Z,9.57
2022-10-07T09:06:33.127Z,7.73
2022-10-07T09:10:26.800Z,10.27
2022-10-07T09:14:53.602Z,4.07
2022-10-07T09:18:41.319Z,5.07
2022-10-07T09:22:35.030Z,4.10
2022-10-07T09:26:16.876Z,7.18
2022-10-07T09:29:58.716Z,8.48
2022-10-07T09:33:44.159Z,8.82
2022-10-07T09:37:27.769Z,10.60
2022-10-07T09:41:20.927Z,7.07
2022-10-07T09:45:23.895Z,5.95
2022-10-07T09:49:07.461Z,6.68
2022-10-07T09:52:56.090Z,4.28
2022-10-07T09:56:43.901Z,10.07
2022-10-07T10:00:27.375Z,3.42
2022-10-07T10:04:23.033Z,5.07
2022-10-07T10:08:25.803Z,5.13
2022-10-07T10:12:15.131Z,6.85
2022-10-07T10:15:57.477Z,6.20
2022-10-07T10:19:39.362Z,4.93
2022-10-07T10:23:35.783Z,6.40
2022-10-07T10:27:34.446Z,7.07
2022-10-07T10:31:37.172Z,5.68
2022-10-07T10:35:28.905Z,4.57
2022-10-07T10:39:25.707Z,7.30
2022-10-07T10:43:26.461Z,4.22
2022-10-07T10:47:31.374Z,5.90
2022-10-07T10:51:34.263Z,2.17
2022-10-07T10:55:21.820Z,5.47
2022-10-07T10:59:19.639Z,5.63
2022-10-07T11:03:24.596Z,3.17
2022-10-07T11:07:21.392Z,5.97
2022-10-07T11:11:15.933Z,4.25
2022-10-07T11:15:20.174Z,5.13
2022-10-07T11:19:16.802Z,3.33
2022-10-07T11:23:12.185Z,2.60
2022-10-07T11:26:58.032Z,3.13
2022-10-07T11:31:04.324Z,5.63
2022-10-07T11:35:11.890Z,2.22
2022-10-07T11:38:53.839Z,2.67
2022-10-07T11:42:43.717Z,6.70
2022-10-07T11:46:43.175Z,4.70
2022-10-07T11:50:55.903Z,1.73
2022-10-07T11:54:50.813Z,3.17
2022-10-07T11:58:37.553Z,4.43
2022-10-07T12:02:28.471Z,6.82
2022-10-07T12:06:13.426Z,5.68
2022-10-07T12:10:18.254Z,2.83
2022-10-07T12:14:30.040Z,4.93
2022-10-07T12:18:12.264Z,3.42
2022-10-07T12:22:00.085Z,3.10
2022-10-07T12:25:44.530Z,4.95
2022-10-07T12:29:48.602Z,4.47
2022-10-07T12:33:45.481Z,3.38
2022-10-07T12:37:39.454Z,4.97
2022-10-07T12:41:30.817Z,4.47
2022-10-07T12:45:14.209Z,2.42
2022-10-07T12:49:24.503Z,5.03
2022-10-07T12:53:07.228Z,6.78
2022-10-07T12:56:49.619Z,3.00
2022-10-07T13:00:32.097Z,5.47
2022-10-07T13:04:35.412Z,10.07
2022-10-07T13:08:42.303Z,2.50
2022-10-07T13:12:46.835Z,4.63
2022-10-07T13:16:53.615Z,1.77
2022-10-07T13:20:56.775Z,4.15
2022-10-07T13:24:47.715Z,5.05
2022-10-07T13:28:43.560Z,4.50
2022-10-07T13:32:34.336Z,3.40
2022-10-07T13:36:19.168Z,5.55
2022-10-07T13:40:21.205Z,3.42
2022-10-07T13:44:05.639Z,4.05
2022-10-07T13:47:47.746Z,4.72
2022-10-07T13:51:34.632Z,3.13
2022-10-07T13:55:25.714Z,6.13
2022-10-07T13:59:16.018Z,3.25
2022-10-07T14:02:58.269Z,6.10
2022-10-07T14:06:51.486Z,5.82
2022-10-07T14:10:33.769Z,3.03
2022-10-07T14:14:21.609Z,3.63
2022-10-07T14:18:10.606Z,6.13
2022-10-07T14:21:52.601Z,5.00
2022-10-07T14:25:55.159Z,4.30
2022-10-07T14:29:37.983Z,2.38
2022-10-07T14:33:44.181Z,4.55
2022-10-07T14:37:31.555Z,3.35
2022-10-07T14:41:15.724Z,3.92
2022-10-07T14:44:57.927Z,3.75
2022-10-07T14:48:39.796Z,2.42
2022-10-07T14:52:31.615Z,4.10
2022-10-07T14:56:28.081Z,3.15
2022-10-07T15:00:23.611Z,3.22
2022-10-07T15:04:07.089Z,5.50
2022-10-07T15:07:50.272Z,4.13
2022-10-07T15:11:32.323Z,4.07
2022-10-07T15:15:15.139Z,4.07
2022-10-07T15:18:57.235Z,5.88
2022-10-07T15:22:39.126Z,4.25
2022-10-07T15:26:24.357Z,3.83
2022-10-07T15:30:07.363Z,3.17
2022-10-07T15:33:49.313Z,3.22
2022-10-07T15:37:32.365Z,1.75
2022-10-07T15:41:28.242Z,2.40
2022-10-07T15:45:11.284Z,4.18
2022-10-07T15:48:57.503Z,2.15
2022-10-07T15:52:39.312Z,2.90
2022-10-07T15:56:21.257Z,4.53
2022-10-07T16:00:05.045Z,4.10
2022-10-07T16:03:48.743Z,4.35
2022-10-07T16:07:30.958Z,2.08
2022-10-07T16:11:13.595Z,3.83
2022-10-07T16:14:56.154Z,3.65
2022-10-07T16:18:40.568Z,2.35
2022-10-07T16:22:22.355Z,1.63
2022-10-07T16:26:06.220Z,3.75
2022-10-07T16:30:06.725Z,3.28
2022-10-07T16:33:52.919Z,1.75
2022-10-07T16:37:34.781Z,5.55
2022-10-07T16:41:17.319Z,5.63
2022-10-07T16:44:59.152Z,3.97
2022-10-07T16:48:43.170Z,2.88
2022-10-07T16:52:25.588Z,6.72
2022-10-07T16:56:08.171Z,3.20
2022-10-07T16:59:53.273Z,2.92
2022-10-07T17:03:35.738Z,2.70
2022-10-07T17:07:17.696Z,3.38
2022-10-07T17:11:00.831Z,7.78
2022-10-07T17:14:43.394Z,3.47
2022-10-07T17:18:26.749Z,5.13
2022-10-07T17:22:09.637Z,3.08
2022-10-07T17:25:52.297Z,6.03
2022-10-07T17:29:35.962Z,5.95
2022-10-07T17:33:17.833Z,7.38
2022-10-07T17:37:01.039Z,4.25
2022-10-07T17:40:43.652Z,4.13
2022-10-07T17:44:25.756Z,3.40
2022-10-07T17:48:08.482Z,6.95
2022-10-07T17:51:50.305Z,4.63
2022-10-07T17:55:33.487Z,5.30
2022-10-07T17:59:15.835Z,5.60
2022-10-07T18:02:57.648Z,5.25
2022-10-07T18:06:39.979Z,3.67
2022-10-07T18:10:21.817Z,12.77
2022-10-07T18:14:26.678Z,5.88
2022-10-07T18:18:08.655Z,9.05
2022-10-07T18:21:50.874Z,10.23
2022-10-07T18:25:35.507Z,5.40
2022-10-07T18:29:18.527Z,4.32
2022-10-07T18:33:00.367Z,7.00
2022-10-07T18:36:42.205Z,8.88
2022-10-07T18:40:24.307Z,7.03
2022-10-07T18:44:07.503Z,10.38
2022-10-07T18:47:49.456Z,10.57
2022-10-07T18:51:31.366Z,8.73
2022-10-07T18:55:13.312Z,9.52
2022-10-07T18:58:55.116Z,8.00
2022-10-07T19:02:37.161Z,7.60
2022-10-07T19:06:21.473Z,10.02
2022-10-07T19:10:03.398Z,14.95
2022-10-07T19:13:48.469Z,14.55
2022-10-07T19:17:30.311Z,10.52
2022-10-07T19:21:12.741Z,12.75
2022-10-07T19:25:13.311Z,14.70
2022-10-07T19:28:56.054Z,17.95
2022-10-07T19:32:40.039Z,10.57
2022-10-07T19:36:23.190Z,11.80
2022-10-07T19:40:05.521Z,10.05
2022-10-07T19:43:49.086Z,13.50
2022-10-07T19:47:32.655Z,15.50
2022-10-07T19:51:20.295Z,15.90
2022-10-07T19:55:02.149Z,13.30
2022-10-07T19:58:48.866Z,13.93
2022-10-07T20:02:30.809Z,14.75
2022-10-07T20:06:13.061Z,11.27
2022-10-07T20:09:55.128Z,14.43
2022-10-07T20:13:37.932Z,12.52
2022-10-07T20:17:20.101Z,16.02
2022-10-07T20:21:15.996Z,14.35
2022-10-07T20:24:57.850Z,18.92
2022-10-07T20:28:40.479Z,19.35
2022-10-07T20:32:22.895Z,23.90
2022-10-07T20:36:05.595Z,16.13
2022-10-07T20:40:06.177Z,15.90
2022-10-07T20:43:50.579Z,17.65
2022-10-07T20:47:34.290Z,15.98
2022-10-07T20:51:17.068Z,19.85
2022-10-07T20:54:59.108Z,15.73
2022-10-07T20:58:40.953Z,10.90
2022-10-07T21:02:24.046Z,18.98
2022-10-07T21:06:06.498Z,16.77
2022-10-07T21:09:48.600Z,17.23
2022-10-07T21:13:31.679Z,12.13
2022-10-07T21:17:14.296Z,18.17
2022-10-07T21:20:57.165Z,13.05
2022-10-07T21:24:39.287Z,15.48
2022-10-07T21:28:21.340Z,14.52
2022-10-07T21:32:03.632Z,12.57
2022-10-07T21:35:45.536Z,14.90
2022-10-07T21:39:27.380Z,18.33
2022-10-07T21:43:09.266Z,11.38
2022-10-07T21:46:51.259Z,14.20
2022-10-07T21:50:33.065Z,16.58
2022-10-07T21:54:17.995Z,14.52
2022-10-07T21:57:59.769Z,13.05
2022-10-07T22:01:42.663Z,8.95
2022-10-07T22:05:24.655Z,11.85
2022-10-07T22:09:06.477Z,9.85
2022-10-07T22:12:49.010Z,16.35
2022-10-07T22:16:31.606Z,16.35
2022-10-07T22:20:13.426Z,12.13
2022-10-07T22:24:00.045Z,12.27
2022-10-07T22:27:42.260Z,12.55
2022-10-07T22:31:24.334Z,11.98
2022-10-07T22:35:25.260Z,12.05
2022-10-07T22:39:07.109Z,8.93
2022-10-07T22:42:49.375Z,8.68
2022-10-07T22:46:31.304Z,13.20
2022-10-07T22:50:13.223Z,9.65
2022-10-07T22:53:56.090Z,9.60
2022-10-07T22:57:37.934Z,9.88
2022-10-07T23:01:20.671Z,9.07
2022-10-07T23:05:02.539Z,12.60
2022-10-07T23:08:45.333Z,10.77
2022-10-07T23:12:27.243Z,7.78
2022-10-07T23:16:12.263Z,11.30
2022-10-07T23:19:54.559Z,5.55
2022-10-07T23:23:38.283Z,8.02
2022-10-07T23:27:20.387Z,5.85
2022-10-07T23:31:10.965Z,6.45
2022-10-07T23:34:52.812Z,8.48
2022-10-07T23:38:35.676Z,8.43
2022-10-07T23:42:17.609Z,4.97
2022-10-07T23:46:00.705Z,7.20
2022-10-07T23:49:42.576Z,12.07
2022-10-07T23:53:24.378Z,10.95
2022-10-07T23:57:06.222Z,6.07
